D/T METAR WX W/DIR W/SPE G/SPE TEMP DEWP
22/01/20 07:50 EGUL 220750Z AUTO 00000KT 0400 R24/0700V0750 FG VV001 03/03 A3062 RMK AO2 CIG 000 RWY06 SLP373 $ FG N (0°) 3°C 3°C
22/01/20 06:56 EGUL 220656Z AUTO 00000KT 0400 R24/0550V0600 FG VV001 03/03 A3061 RMK AO2 CIG 000 RWY06 SLP370 T00270027 $ FG N (0°) 2.7°C 2.7°C
22/01/20 06:41 EGUL 220641Z AUTO 00000KT 0600 R24/0550V0650 FG VV001 03/03 A3060 RMK AO2 CIG 000 RWY06 SLP366 $ FG N (0°) 3°C 3°C
22/01/20 06:06 EGUL 220606Z AUTO 00000KT 0400 R24/0550V0650 FG VV001 03/03 A3061 RMK AO2 CIG 000 RWY06 SLP370 $ FG N (0°) 3°C 3°C
22/01/20 05:28 EGUL 220528Z AUTO 00000KT 0400 R24/0550V0600 FG VV001 02/02 A3061 RMK AO2 CIG 000 RWY06 SLP370 $ FG N (0°) 2°C 2°C
22/01/20 04:56 EGUL 220456Z AUTO 00000KT 0400 R24/0500 FG VV001 02/02 A3062 RMK AO2 CIG 000 RWY06 SLP373 T00230023 $ FG N (0°) 2.3°C 2.3°C
22/01/20 04:46 EGUL 220446Z AUTO 00000KT 0400 R24/0450V0500 FG VV001 02/02 A3062 RMK AO2 CIG 000 RWY06 SLP373 $ FG N (0°) 2°C 2°C
22/01/20 04:06 EGUL 220406Z AUTO 00000KT 0400 R24/0400V0450 FG VV000 02/02 A3062 RMK AO2 SLP373 $ FG N (0°) 2°C 2°C
22/01/20 03:36 EGUL 220336Z AUTO 00000KT 0400 R24/0500 FG VV001 02/02 A3062 RMK AO2 UPB26E36 CIG 000 RWY06 SLP373 $ FG N (0°) 2°C 2°C
22/01/20 02:56 EGUL 220256Z AUTO 24003KT 0400 R24/0500V0550 FG VV001 02/02 A3063 RMK AO2 UPE11 CIG 000 RWY06 SLP376 P0000 60000 T00190019 57009 $ FG WSW (240°) 3.5mph 1.9°C 1.9°C
22/01/20 02:11 EGUL 220211Z AUTO 00000KT 0400 R24/0450V0500 FG VV001 02/02 A3063 RMK AO2 UPE11 CIG 000 RWY06 SLP376 $ FG N (0°) 2°C 2°C
22/01/20 01:44 EGUL 220144Z AUTO 00000KT 0400 R24/0450V0500 -UP FG VV001 01/01 A3064 RMK AO2 UPB0056E09UPB44 CIG 000 RWY06 SLP380 $ FG UP N (0°) 1°C 1°C
22/01/20 01:09 EGUL 220109Z AUTO 00000KT 0400 R24/0400V0450 FG VV001 01/01 A3064 RMK AO2 UPB0056E09 CIG 000 RWY06 SLP380 $ FG N (0°) 1°C 1°C
22/01/20 00:37 EGUL 220037Z AUTO 00000KT 0400 R24/0500V0650 FG VV001 01/00 A3065 RMK AO2 CIG 000 RWY06 SLP383 $ FG N (0°) 1°C 0°C
22/01/20 00:19 EGUL 220019Z AUTO 00000KT 0600 R24/0700V0900 FG VV002 00/00 A3066 RMK AO2 SLP387 $ FG N (0°) 0°C 0°C
21/01/20 23:22 EGUL 212322Z AUTO 00000KT 8000 BR BKN003 M01/M02 A3066 RMK AO2 BKN V SCT SLP387 $ BR N (0°) -1°C -2°C
21/01/20 23:12 EGUL 212312Z AUTO 18003KT 8000 BR FEW004 FEW041 M01/M02 A3067 RMK AO2 SLP390 $ BR S (180°) 3.5mph -1°C -2°C
21/01/20 21:56 EGUL 212156Z AUTO 00000KT 8000 BR CLR M02/M02 A3067 RMK AO2 UPB2056E01UPB11E20UPB41E55 SLP390 P0000 T10171025 $ BR N (0°) -1.7°C -2.5°C
21/01/20 21:50 EGUL 212150Z AUTO 00000KT 8000 -UP BR CLR M02/M02 A3067 RMK AO2 UPB2056E01UPB11E20UPB41 SLP390 $ BR UP N (0°) -2°C -2°C
21/01/20 20:56 EGUL 212056Z AUTO 00000KT 6000 -UP BR CLR M02/M02 A3066 RMK AO2 UPB50 SLP387 P0000 60000 T10171025 58003 $ BR UP N (0°) -1.7°C -2.5°C
21/01/20 20:50 EGUL 212050Z AUTO 00000KT 8000 -UP BR CLR M02/M02 A3067 RMK AO2 UPB50 SLP390 $ BR UP N (0°) -2°C -2°C
21/01/20 19:56 EGUL 211956Z AUTO 00000KT 8000 BR CLR M01/M02 A3066 RMK AO2 SLP387 T10091016 $ BR N (0°) -0.9°C -1.6°C
21/01/20 18:56 EGUL 211856Z AUTO 00000KT 6000 BR CLR M01/M02 A3068 RMK AO2 UPB17E27 SLP393 P0000 T10121020 $ BR N (0°) -1.2°C -2°C
21/01/20 18:27 EGUL 211827Z AUTO 00000KT 6000 BR CLR 00/M01 A3068 RMK AO2 UPB17E27 SLP393 $ BR N (0°) 0°C -1°C
21/01/20 17:56 EGUL 211756Z AUTO 00000KT 6000 BR CLR 00/M01 A3067 RMK AO2 SLP390 60000 T00031006 10059 20002 55003 $ BR N (0°) 0.3°C -0.6°C
21/01/20 16:56 EGUL 211656Z AUTO 18005KT 9999 CLR 03/01 A3067 RMK AO2 SLP390 T00260013 $ S (180°) 5.8mph 2.6°C 1.3°C
21/01/20 15:56 EGUL 211556Z AUTO 24005KT 9999 CLR 04/01 A3068 RMK AO2 SLP393 T00370012 $ WSW (240°) 5.8mph 3.7°C 1.2°C
21/01/20 14:56 EGUL 211456Z AUTO 00000KT 9999 CLR 06/02 A3068 RMK AO2 SLP393 60000 T00580023 57016 $ N (0°) 5.8°C 2.3°C
21/01/20 13:56 EGUL 211356Z 27003KT 9999 CLR 05/02 A3071 RMK AO2A SLP403 T00500024 $ W (270°) 3.5mph 5°C 2.4°C
21/01/20 12:56 EGUL 211256Z 24005KT 9999 CLR 04/02 A3072 RMK AO2A SLP407 T00410021 $ WSW (240°) 5.8mph 4.1°C 2.1°C
21/01/20 11:56 EGUL 211156Z 19004KT 9000 BR BKN021 03/02 A3073 RMK AO2A BKN V OVC SLP410 T00270017 10027 21024 58009 $ BR S (190°) 4.6mph 2.7°C 1.7°C
21/01/20 10:56 EGUL 211056Z COR 25003KT 9000 BR OVC020 02/01 A3075 RMK SLP417 T00200013 10020 21024 58001 $ COR 1128 BR WSW (250°) 3.5mph 2°C 1.3°C
21/01/20 10:56 EGUL 211056Z 25003KT 9000 BR OVC020 02/01 A3075 RMK DZB1003E1017 SLP417 P0000 60000 T00200013 10020 21024 58001 $ BR WSW (250°) 3.5mph 2°C 1.3°C
21/01/20 09:56 EGUL 210956Z 00000KT 5000 BR BKN023 01/01 A3076 RMK AO2A BKN V SCT SLP421 P0000 T00110007 $ BR N (0°) 1.1°C 0.7°C
21/01/20 08:56 EGUL 210856Z 19005KT 5000 BR CLR M01/M02 A3076 RMK VIS 1800 RWY06 SLP421 P0000 60000 T10141020 53004 $ BR S (190°) 5.8mph -1.4°C -2°C
21/01/20 08:15 EGUL 210815Z 00000KT 4000 BR CLR M02/M03 A3076 RMK AO2A VIS 1600V4000 VIS 0400 RWY06 UPB0759E10 SLP421 $ BR N (0°) -2°C -3°C
21/01/20 07:43 EGUL 210743Z 00000KT 1200 R24/0750VP1500 BR CLR M02/M02 A3074 RMK AO2A SLP414 $ BR N (0°) -2°C -2°C
21/01/20 06:56 EGUL 210656Z AUTO 18003KT 6000 BR CLR M01/M01 A3074 RMK AO2 VIS 4000 RWY06 UPB32E42 SLP414 P0000 T10081014 $ BR S (180°) 3.5mph -0.8°C -1.4°C
21/01/20 06:42 EGUL 210642Z AUTO 00000KT 6000 BR CLR M01/M02 A3074 RMK AO2 VIS 3200 RWY06 UPB32E42 SLP414 $ BR N (0°) -1°C -2°C
21/01/20 06:16 EGUL 210616Z AUTO 00000KT 5000 BR CLR M02/M02 A3075 RMK AO2 VIS 1400 RWY06 SLP417 $ BR N (0°) -2°C -2°C
21/01/20 05:26 EGUL 210526Z AUTO 00000KT 5000 BR CLR M02/M03 A3075 RMK AO2 VIS 1600 RWY06 SLP417 $ BR N (0°) -2°C -3°C
21/01/20 05:06 EGUL 210506Z AUTO 00000KT 5000 BR CLR M02/M02 A3075 RMK AO2 VIS 1200 RWY06 SLP417 $ BR N (0°) -2°C -2°C
21/01/20 04:48 EGUL 210448Z AUTO 00000KT 3000 BR CLR M02/M02 A3075 RMK AO2 VIS 1400V3000 VIS 1800 RWY06 SLP417 $ BR N (0°) -2°C -2°C
21/01/20 03:56 EGUL 210356Z AUTO 00000KT 8000 BR CLR 00/M01 A3076 RMK AO2 UPB39E53 SLP420 P0000 T10051012 $ BR N (0°) -0.5°C -1.2°C
21/01/20 03:53 EGUL 210353Z AUTO 00000KT 8000 BR CLR 00/M01 A3076 RMK AO2 UPB39E53 SLP420 $ BR N (0°) 0°C -1°C
21/01/20 03:06 EGUL 210306Z AUTO 00000KT 6000 BR CLR M01/M02 A3077 RMK AO2 SLP424 $ BR N (0°) -1°C -2°C
21/01/20 01:56 EGUL 210156Z AUTO 16003KT 9999 CLR M02/M03 A3077 RMK AO2 UPE12 SLP424 P0000 T10191026 $ SSE (160°) 3.5mph -1.9°C -2.6°C
21/01/20 01:38 EGUL 210138Z AUTO 00000KT 6000 BR CLR M02/M03 A3078 RMK AO2 VIS 3200 RWY06 UPE12 SLP427 $ BR N (0°) -2°C -3°C